createdAt,value
2017-06-20T00:02:23.028Z,22.60
2017-06-20T00:04:49.267Z,22.90
2017-06-20T00:07:15.528Z,23.00
2017-06-20T00:09:41.899Z,22.50
2017-06-20T00:12:08.148Z,22.30
2017-06-20T00:14:34.383Z,22.60
2017-06-20T00:17:00.620Z,22.70
2017-06-20T00:19:26.879Z,22.40
2017-06-20T00:21:53.290Z,22.50
2017-06-20T00:24:20.372Z,22.70
2017-06-20T00:26:46.614Z,22.50
2017-06-20T00:29:13.013Z,22.20
2017-06-20T00:31:39.284Z,22.50
2017-06-20T00:34:05.511Z,22.30
2017-06-20T00:36:31.763Z,22.30
2017-06-20T00:38:58.001Z,22.30
2017-06-20T00:41:24.384Z,22.30
2017-06-20T00:43:50.630Z,22.50
2017-06-20T00:46:16.920Z,22.20
2017-06-20T00:48:43.170Z,22.40
2017-06-20T00:51:09.412Z,22.40
2017-06-20T00:53:35.803Z,22.10
2017-06-20T00:56:02.035Z,21.80
2017-06-20T00:58:28.270Z,22.30
2017-06-20T01:00:54.676Z,21.80
2017-06-20T01:03:20.927Z,22.30
2017-06-20T01:05:47.171Z,21.50
2017-06-20T01:08:13.420Z,22.10
2017-06-20T01:10:39.680Z,21.80
2017-06-20T01:13:06.065Z,22.30
2017-06-20T01:15:32.318Z,21.60
2017-06-20T01:17:58.567Z,21.70
2017-06-20T01:20:24.890Z,22.00
2017-06-20T01:22:51.143Z,21.50
2017-06-20T01:25:18.662Z,21.60
2017-06-20T01:27:44.878Z,21.60
2017-06-20T01:30:11.149Z,21.80
2017-06-20T01:32:37.422Z,21.70
2017-06-20T01:35:03.683Z,22.10
2017-06-20T01:37:30.079Z,21.70
2017-06-20T01:39:56.342Z,21.80
2017-06-20T01:42:22.626Z,21.80
2017-06-20T01:44:48.883Z,21.60
2017-06-20T01:47:15.143Z,21.60
2017-06-20T01:49:41.556Z,21.60
2017-06-20T01:52:07.810Z,21.50
2017-06-20T01:54:34.069Z,21.30
2017-06-20T01:57:00.327Z,21.60
2017-06-20T01:59:26.607Z,21.70
2017-06-20T02:01:52.994Z,21.60
2017-06-20T02:04:19.291Z,21.80
2017-06-20T02:06:45.542Z,21.60
2017-06-20T02:09:11.801Z,21.50
2017-06-20T02:11:38.283Z,21.50
2017-06-20T02:14:04.855Z,21.70
2017-06-20T02:16:31.115Z,21.40
2017-06-20T02:18:57.368Z,21.70
2017-06-20T02:21:23.626Z,21.50
2017-06-20T02:23:49.883Z,20.90
2017-06-20T02:26:17.756Z,21.40
2017-06-20T02:28:44.029Z,21.30
2017-06-20T02:31:10.341Z,21.50
2017-06-20T02:33:36.589Z,21.50
2017-06-20T02:36:02.834Z,21.30
2017-06-20T02:38:29.245Z,21.50
2017-06-20T02:40:55.483Z,21.60
2017-06-20T02:43:21.734Z,20.70
2017-06-20T02:45:47.987Z,21.40
2017-06-20T02:48:14.229Z,21.00
2017-06-20T02:50:40.664Z,20.90
2017-06-20T02:53:06.897Z,21.20
2017-06-20T02:55:33.135Z,21.20
2017-06-20T02:57:59.386Z,20.90
2017-06-20T03:00:25.646Z,20.90
2017-06-20T03:02:52.051Z,21.00
2017-06-20T03:05:18.303Z,21.20
2017-06-20T03:07:44.542Z,21.20
2017-06-20T03:10:10.839Z,21.10
2017-06-20T03:12:37.088Z,21.00
2017-06-20T03:15:03.461Z,21.20
2017-06-20T03:17:29.736Z,20.90
2017-06-20T03:19:55.973Z,21.00
2017-06-20T03:22:22.269Z,20.90
2017-06-20T03:24:48.522Z,20.80
2017-06-20T03:27:16.474Z,20.80
2017-06-20T03:29:42.723Z,20.70
2017-06-20T03:32:08.979Z,21.00
2017-06-20T03:34:35.214Z,20.60
2017-06-20T03:37:01.467Z,20.80
2017-06-20T03:39:27.931Z,20.30
2017-06-20T03:41:54.182Z,21.00
2017-06-20T03:44:20.439Z,20.90
2017-06-20T03:46:46.697Z,20.60
2017-06-20T03:49:12.947Z,20.90
2017-06-20T03:51:39.368Z,20.80
2017-06-20T03:54:05.629Z,20.90
2017-06-20T03:56:31.868Z,20.80
2017-06-20T03:58:58.115Z,20.90
2017-06-20T04:01:24.382Z,20.90
2017-06-20T04:03:50.747Z,20.80
2017-06-20T04:06:16.991Z,20.90
2017-06-20T04:08:43.218Z,20.80
2017-06-20T04:11:09.452Z,20.90
2017-06-20T04:13:35.678Z,20.60
2017-06-20T04:16:02.046Z,20.80
2017-06-20T04:18:28.288Z,20.80
2017-06-20T04:21:00.600Z,20.90
2017-06-20T04:23:26.841Z,20.80
2017-06-20T04:25:53.075Z,20.90
2017-06-20T04:28:20.658Z,20.90
2017-06-20T04:30:46.905Z,20.80
2017-06-20T04:33:13.144Z,20.90
2017-06-20T04:35:39.426Z,20.90
2017-06-20T04:38:05.654Z,21.00
2017-06-20T04:40:32.054Z,20.90
2017-06-20T04:42:58.291Z,20.70
2017-06-20T04:45:24.554Z,20.90
2017-06-20T04:47:50.854Z,20.90
2017-06-20T04:50:17.085Z,21.30
2017-06-20T04:52:43.524Z,21.30
2017-06-20T04:55:09.785Z,21.30
2017-06-20T04:57:36.051Z,21.40
2017-06-20T05:00:02.323Z,21.30
2017-06-20T05:02:28.595Z,21.30
2017-06-20T05:04:55.004Z,21.60
2017-06-20T05:07:21.256Z,21.40
2017-06-20T05:09:47.495Z,21.60
2017-06-20T05:12:13.742Z,21.40
2017-06-20T05:14:40.006Z,21.50
2017-06-20T05:17:06.391Z,21.60
2017-06-20T05:19:32.814Z,21.60
2017-06-20T05:21:59.066Z,21.40
2017-06-20T05:24:25.301Z,21.50
2017-06-20T05:26:51.918Z,21.50
2017-06-20T05:29:20.870Z,21.50
2017-06-20T05:31:47.098Z,21.50
2017-06-20T05:34:13.377Z,21.90
2017-06-20T05:36:39.624Z,22.10
2017-06-20T05:39:05.896Z,22.00
2017-06-20T05:41:32.359Z,22.00
2017-06-20T05:43:58.611Z,22.20
2017-06-20T05:46:24.846Z,22.00
2017-06-20T05:48:51.086Z,22.20
2017-06-20T05:51:17.324Z,22.20
2017-06-20T05:53:43.834Z,22.10
2017-06-20T05:56:10.285Z,22.00
2017-06-20T05:58:36.574Z,22.10
2017-06-20T06:01:02.819Z,22.40
2017-06-20T06:03:29.086Z,22.30
2017-06-20T06:05:55.480Z,22.40
2017-06-20T06:08:21.739Z,22.90
2017-06-20T06:10:48.150Z,22.10
2017-06-20T06:13:14.448Z,23.00
2017-06-20T06:15:40.694Z,22.80
2017-06-20T06:18:07.050Z,23.00
2017-06-20T06:20:33.279Z,22.70
2017-06-20T06:22:59.506Z,22.70
2017-06-20T06:25:25.816Z,22.90
2017-06-20T06:27:52.084Z,22.70
2017-06-20T06:30:20.222Z,22.70
2017-06-20T06:32:46.454Z,23.00
2017-06-20T06:35:12.709Z,22.40
2017-06-20T06:37:38.948Z,22.90
2017-06-20T06:40:05.186Z,22.90
2017-06-20T06:42:31.585Z,23.00
2017-06-20T06:44:57.870Z,22.80
2017-06-20T06:47:24.156Z,22.90
2017-06-20T06:49:50.412Z,23.10
2017-06-20T06:52:16.647Z,23.10
2017-06-20T06:54:43.139Z,22.90
2017-06-20T06:57:09.433Z,23.50
2017-06-20T06:59:35.669Z,23.60
2017-06-20T07:02:01.905Z,23.80
2017-06-20T07:04:28.138Z,23.70
2017-06-20T07:06:54.534Z,23.70
2017-06-20T07:09:20.805Z,24.00
2017-06-20T07:11:47.028Z,24.40
2017-06-20T07:14:13.273Z,23.80
2017-06-20T07:16:39.540Z,24.40
2017-06-20T07:19:06.475Z,24.20
2017-06-20T07:21:32.771Z,24.00
2017-06-20T07:23:59.010Z,24.60
2017-06-20T07:26:25.288Z,25.00
2017-06-20T07:28:51.531Z,26.00
2017-06-20T07:31:20.065Z,27.70
2017-06-20T07:33:46.293Z,28.70
2017-06-20T07:36:12.535Z,29.50
2017-06-20T07:38:38.911Z,30.10
2017-06-20T07:41:05.157Z,30.50
2017-06-20T07:43:31.378Z,30.80
2017-06-20T07:45:57.774Z,30.80
2017-06-20T07:48:24.023Z,30.70
2017-06-20T07:50:50.246Z,31.50
2017-06-20T07:53:16.647Z,31.80
2017-06-20T07:55:42.883Z,32.00
2017-06-20T07:58:09.117Z,31.90
2017-06-20T08:00:35.523Z,32.20
2017-06-20T08:03:01.761Z,32.30
2017-06-20T08:05:27.998Z,32.20
2017-06-20T08:07:54.469Z,32.00
2017-06-20T08:10:20.719Z,31.60
2017-06-20T08:12:46.966Z,31.90
2017-06-20T08:15:13.462Z,31.70
2017-06-20T08:17:39.692Z,31.60
2017-06-20T08:20:05.932Z,32.00
2017-06-20T08:22:32.344Z,32.30
2017-06-20T08:24:58.584Z,32.20
2017-06-20T08:27:24.852Z,32.00
2017-06-20T08:29:51.229Z,31.70
2017-06-20T08:32:19.576Z,31.60
2017-06-20T08:34:45.876Z,31.70
2017-06-20T08:37:18.164Z,31.60
2017-06-20T08:39:44.495Z,31.30
2017-06-20T08:42:10.795Z,30.80
2017-06-20T08:44:37.056Z,30.40
2017-06-20T08:47:03.308Z,31.20
2017-06-20T08:49:30.336Z,32.10
2017-06-20T08:51:56.599Z,32.10
2017-06-20T08:54:22.862Z,31.80
2017-06-20T08:56:49.128Z,31.10
2017-06-20T08:59:15.404Z,31.10
2017-06-20T09:01:41.653Z,30.90
2017-06-20T09:04:07.898Z,31.10
2017-06-20T09:06:34.907Z,30.90
2017-06-20T09:09:01.230Z,31.20
2017-06-20T09:11:27.454Z,30.90
2017-06-20T09:13:53.712Z,31.40
2017-06-20T09:16:19.971Z,31.50
2017-06-20T09:18:46.270Z,31.50
2017-06-20T09:21:12.512Z,31.50
2017-06-20T09:23:38.743Z,31.90
2017-06-20T09:26:04.989Z,31.90
2017-06-20T09:28:31.232Z,31.80
2017-06-20T09:30:58.234Z,32.20
2017-06-20T09:33:24.495Z,32.30
2017-06-20T09:35:50.721Z,31.70
2017-06-20T09:38:16.972Z,31.80
2017-06-20T09:40:43.224Z,32.10
2017-06-20T09:43:24.434Z,32.50
2017-06-20T09:45:50.676Z,32.70
2017-06-20T09:48:17.125Z,32.10
2017-06-20T09:50:44.116Z,32.50
2017-06-20T09:53:10.383Z,32.40
2017-06-20T09:55:36.606Z,32.70
2017-06-20T09:58:02.851Z,32.30
2017-06-20T10:00:29.280Z,32.10
2017-06-20T10:02:55.529Z,32.30
2017-06-20T10:05:21.799Z,33.00
2017-06-20T10:07:48.048Z,32.70
2017-06-20T10:10:14.295Z,32.40
2017-06-20T10:12:40.774Z,32.30
2017-06-20T10:15:07.023Z,32.60
2017-06-20T10:17:33.272Z,32.60
2017-06-20T10:19:59.514Z,32.60
2017-06-20T10:22:25.776Z,32.40
2017-06-20T10:24:52.174Z,32.40
2017-06-20T10:27:18.414Z,32.70
2017-06-20T10:29:44.667Z,33.00
2017-06-20T10:32:10.920Z,32.60
2017-06-20T10:34:37.187Z,32.60
2017-06-20T10:37:03.606Z,32.80
2017-06-20T10:39:29.841Z,32.80
2017-06-20T10:41:56.083Z,32.60
2017-06-20T10:44:23.108Z,32.80
2017-06-20T10:46:49.350Z,32.70
2017-06-20T10:49:16.584Z,32.80
2017-06-20T10:51:42.839Z,32.70
2017-06-20T10:54:09.821Z,32.40
2017-06-20T10:56:36.064Z,32.30
2017-06-20T10:59:02.330Z,32.20
2017-06-20T11:01:28.767Z,32.20
2017-06-20T11:03:55.007Z,32.80
2017-06-20T11:06:22.000Z,33.00
2017-06-20T11:08:48.260Z,33.00
2017-06-20T11:11:14.516Z,33.10
2017-06-20T11:13:42.355Z,33.10
2017-06-20T11:16:08.624Z,33.30
2017-06-20T11:18:36.970Z,33.10
2017-06-20T11:21:03.812Z,33.50
2017-06-20T11:23:30.820Z,33.50
2017-06-20T11:25:57.207Z,33.50
2017-06-20T11:28:23.441Z,33.60
2017-06-20T11:30:49.684Z,34.00
2017-06-20T11:33:15.923Z,34.30
2017-06-20T11:35:42.206Z,34.30
2017-06-20T11:38:08.631Z,34.10
2017-06-20T11:40:34.863Z,34.10
2017-06-20T11:43:01.099Z,34.40
2017-06-20T11:45:28.339Z,35.30
2017-06-20T11:47:55.323Z,35.10
2017-06-20T11:50:21.575Z,35.10
2017-06-20T11:52:49.115Z,35.20
2017-06-20T11:55:15.381Z,34.90
2017-06-20T11:57:41.824Z,34.70
2017-06-20T12:00:08.081Z,35.00
2017-06-20T12:02:34.328Z,35.10
2017-06-20T12:05:00.584Z,35.30
2017-06-20T12:07:26.835Z,35.70
2017-06-20T12:09:53.275Z,36.10
2017-06-20T12:12:20.274Z,36.30
2017-06-20T12:14:46.534Z,36.30
2017-06-20T12:17:12.794Z,36.10
2017-06-20T12:19:39.783Z,35.10
2017-06-20T12:22:06.260Z,35.10
2017-06-20T12:24:32.522Z,35.10
2017-06-20T18:20:21.850Z,27.90
2017-06-20T18:22:48.211Z,28.00
2017-06-20T18:25:14.460Z,27.90
2017-06-20T18:27:41.317Z,27.80
2017-06-20T18:30:07.961Z,27.70
2017-06-20T18:32:34.217Z,27.70
2017-06-20T18:35:00.636Z,27.60
2017-06-20T18:37:26.888Z,27.50
2017-06-20T18:39:53.139Z,27.00
2017-06-20T18:42:19.406Z,27.40
2017-06-20T18:44:45.668Z,27.30
2017-06-20T18:47:13.412Z,27.20
2017-06-20T18:49:39.691Z,27.10
2017-06-20T18:52:05.991Z,27.10
2017-06-20T18:54:32.260Z,27.10
2017-06-20T18:56:58.527Z,26.80
2017-06-20T18:59:24.983Z,26.90
2017-06-20T19:01:51.235Z,27.00
2017-06-20T19:04:17.499Z,26.80
2017-06-20T19:06:43.751Z,26.80
2017-06-20T19:09:10.043Z,26.50
2017-06-20T19:11:36.432Z,26.50
2017-06-20T19:14:02.730Z,26.40
2017-06-20T19:16:28.991Z,26.30
2017-06-20T19:18:55.395Z,26.30
2017-06-20T19:21:21.676Z,26.30
2017-06-20T19:23:47.946Z,26.10
2017-06-20T19:26:14.206Z,26.00
2017-06-20T19:28:40.482Z,25.70
2017-06-20T19:31:06.767Z,25.50
2017-06-20T19:33:33.061Z,25.10
2017-06-20T19:35:59.473Z,25.30
2017-06-20T19:38:25.756Z,25.00
2017-06-20T19:40:52.007Z,25.20
2017-06-20T19:43:18.344Z,25.20
2017-06-20T19:45:45.635Z,25.20
2017-06-20T19:48:12.431Z,25.10
2017-06-20T19:50:38.699Z,24.70
2017-06-20T19:53:04.931Z,25.10
2017-06-20T19:55:32.203Z,24.40
2017-06-20T19:57:58.668Z,24.20
2017-06-20T20:00:25.239Z,24.70
2017-06-20T20:02:51.487Z,24.30
2017-06-20T20:05:17.740Z,24.40
2017-06-20T20:07:43.989Z,24.60
2017-06-20T20:10:10.231Z,24.10
2017-06-20T20:12:36.656Z,24.20
2017-06-20T20:15:02.917Z,24.00
2017-06-20T20:17:29.219Z,24.10
2017-06-20T20:19:55.477Z,23.90
2017-06-20T20:22:21.738Z,23.90
2017-06-20T20:24:48.020Z,23.80
2017-06-20T20:27:14.277Z,23.80
2017-06-20T20:29:40.516Z,23.90
2017-06-20T20:32:06.906Z,23.40
2017-06-20T20:34:33.188Z,23.30
2017-06-20T20:36:59.734Z,23.40
2017-06-20T20:39:26.267Z,23.20
2017-06-20T20:41:52.686Z,23.00
2017-06-20T20:44:20.285Z,23.20
2017-06-20T20:46:46.528Z,23.00
2017-06-20T20:49:12.874Z,22.80
2017-06-20T20:51:39.211Z,23.20
2017-06-20T20:54:05.575Z,23.20
2017-06-20T20:56:32.053Z,23.00
2017-06-20T20:58:58.440Z,23.20
2017-06-20T21:01:24.724Z,23.00
2017-06-20T21:03:51.546Z,23.20
2017-06-20T21:06:18.076Z,23.00
2017-06-20T21:08:44.327Z,23.00
2017-06-20T21:11:10.571Z,23.10
2017-06-20T21:13:36.848Z,23.00
2017-06-20T21:16:03.101Z,22.90
2017-06-20T21:18:29.360Z,22.60
2017-06-20T21:20:55.777Z,22.40
2017-06-20T21:23:21.999Z,22.50
2017-06-20T21:25:48.252Z,22.40
2017-06-20T21:28:14.507Z,22.30
2017-06-20T21:30:40.766Z,22.50
2017-06-20T21:33:07.004Z,22.40
2017-06-20T21:35:33.245Z,22.20
2017-06-20T21:37:59.624Z,22.40
2017-06-20T21:40:25.869Z,22.20
2017-06-20T21:42:52.155Z,22.20
2017-06-20T21:45:18.423Z,22.20
2017-06-20T21:47:44.693Z,22.20
2017-06-20T21:50:11.075Z,22.10
2017-06-20T21:52:37.343Z,22.20
2017-06-20T21:55:03.620Z,21.70
2017-06-20T21:57:29.920Z,21.70
2017-06-20T21:59:56.186Z,21.70
2017-06-20T22:02:22.421Z,21.50
2017-06-20T22:04:48.676Z,21.50
2017-06-20T22:07:14.967Z,21.60
2017-06-20T22:09:41.237Z,21.60
2017-06-20T22:12:07.630Z,21.50
2017-06-20T22:14:33.875Z,21.60
2017-06-20T22:17:00.116Z,21.50
2017-06-20T22:19:26.366Z,20.90
2017-06-20T22:21:52.602Z,21.60
2017-06-20T22:24:18.989Z,21.00
2017-06-20T22:26:45.227Z,20.90
2017-06-20T22:29:11.479Z,21.00
2017-06-20T22:31:37.736Z,20.90
2017-06-20T22:34:03.983Z,20.50
2017-06-20T22:36:30.371Z,20.90
2017-06-20T22:38:56.612Z,20.80
2017-06-20T22:41:22.851Z,20.90
2017-06-20T22:43:49.241Z,20.90
2017-06-20T22:46:15.474Z,21.10
2017-06-20T22:48:41.738Z,21.00
2017-06-20T22:51:08.118Z,21.00
2017-06-20T22:53:34.351Z,20.90
2017-06-20T22:56:00.594Z,20.90
2017-06-20T22:58:26.847Z,20.90
2017-06-20T23:00:53.135Z,20.40
2017-06-20T23:03:19.368Z,20.40
2017-06-20T23:05:45.622Z,20.40
2017-06-20T23:08:11.899Z,20.50
2017-06-20T23:10:38.139Z,20.20
2017-06-20T23:13:04.534Z,20.20
2017-06-20T23:15:30.829Z,20.40
2017-06-20T23:17:57.087Z,20.30
2017-06-20T23:20:23.326Z,20.30
2017-06-20T23:22:49.578Z,20.30
2017-06-20T23:25:15.975Z,20.20
2017-06-20T23:27:42.236Z,20.20
2017-06-20T23:30:08.523Z,20.40
2017-06-20T23:32:34.771Z,19.70
2017-06-20T23:35:01.013Z,20.00
2017-06-20T23:37:27.430Z,20.20
2017-06-20T23:39:53.656Z,20.20
2017-06-20T23:42:19.907Z,20.20
2017-06-20T23:44:46.154Z,19.70
2017-06-20T23:47:12.392Z,19.60
2017-06-20T23:49:38.639Z,19.70
2017-06-20T23:52:04.883Z,19.50
2017-06-20T23:54:31.126Z,19.80
2017-06-20T23:56:57.409Z,19.60
2017-06-20T23:59:23.801Z,19.60
